Time;durP1;ratioP1;P1;durP2;ratioP2;P2;SDS_P1;SDS_P2;PMS_P1;PMS_P2;Temp;Humidity;BMP_temperature;BMP_pressure;BME280_temperature;BME280_humidity;BME280_pressure;Samples;Min_cycle;Max_cycle;Signal;HPM_P1;HPM_P2
2023/10/17 00:00:13;;;;;;;0.00;0.00;;;;;;;5.91;70.38;101737.47;15832314;28;20040;-49
2023/10/17 00:07:47;;;;;;;0.38;0.38;;;;;;;5.72;71.45;101743.81;15855398;28;20073;-52
2023/10/17 00:15:27;;;;;;;0.00;0.00;;;;;;;5.59;71.01;101752.19;15859959;28;20308;-52
2023/10/17 00:23:04;;;;;;;0.00;0.00;;;;;;;5.70;71.56;101750.31;15859316;28;20135;-54
2023/10/17 00:30:38;;;;;;;0.10;0.10;;;;;;;6.01;72.54;101742.75;15842010;27;20051;-50
2023/10/17 00:38:15;;;;;;;1.52;1.42;;;;;;;5.74;73.08;101738.38;15835367;28;20399;-50
2023/10/17 00:45:48;;;;;;;0.00;0.00;;;;;;;5.96;72.27;101732.56;15807692;28;20048;-50
2023/10/17 00:53:24;;;;;;;0.00;0.00;;;;;;;6.18;72.05;101736.53;15818824;28;20035;-46
2023/10/17 01:01:09;;;;;;;2.13;1.13;;;;;;;6.32;71.75;101729.78;15799261;28;20051;-51
2023/10/17 01:08:46;;;;;;;0.75;0.55;;;;;;;6.21;72.05;101709.56;15815644;28;20448;-49
2023/10/17 01:16:20;;;;;;;0.93;0.40;;;;;;;6.25;71.54;101726.94;15825451;28;20094;-50
2023/10/17 01:23:55;;;;;;;0.10;0.10;;;;;;;6.51;70.85;101718.06;15809117;28;20077;-49
2023/10/17 01:31:31;;;;;;;0.22;0.15;;;;;;;6.37;72.25;101725.66;15807451;28;20109;-50
2023/10/17 01:39:06;;;;;;;0.05;0.05;;;;;;;6.51;71.42;101726.06;15823411;28;20039;-49
2023/10/17 01:46:43;;;;;;;0.00;0.00;;;;;;;6.42;72.43;101714.50;15838499;28;20059;-52
2023/10/17 01:54:17;;;;;;;0.35;0.32;;;;;;;6.22;72.51;101713.91;15865043;28;20670;-50
2023/10/17 02:01:52;;;;;;;0.00;0.00;;;;;;;6.58;72.20;101708.44;15830148;28;20464;-53
2023/10/17 02:17:18;;;;;;;1.00;0.30;;;;;;;6.65;71.95;101710.28;15848665;28;20047;-49
2023/10/17 02:24:55;;;;;;;0.00;0.00;;;;;;;6.50;72.12;101719.06;15830733;28;20064;-49
2023/10/17 02:32:29;;;;;;;3.60;1.35;;;;;;;6.67;72.24;101718.16;15857893;28;20059;-52
2023/10/17 02:40:09;;;;;;;0.00;0.00;;;;;;;6.27;73.61;101714.28;15837593;28;20036;-47
2023/10/17 02:47:44;;;;;;;0.00;0.00;;;;;;;6.37;73.21;101709.66;15825720;28;20049;-47
2023/10/17 02:55:23;;;;;;;0.00;0.00;;;;;;;6.41;73.20;101725.34;15837408;28;20362;-49
2023/10/17 03:02:59;;;;;;;0.00;0.00;;;;;;;6.49;73.74;101717.41;15838154;28;20043;-49
2023/10/17 03:10:37;;;;;;;0.00;0.00;;;;;;;6.44;74.33;101722.38;15846537;28;20067;-49
2023/10/17 03:18:16;;;;;;;0.10;0.10;;;;;;;6.51;74.72;101718.88;15846259;28;20070;-51
2023/10/17 03:25:50;;;;;;;0.00;0.00;;;;;;;6.51;74.73;101720.72;15836430;28;20435;-48
2023/10/17 03:33:27;;;;;;;;;;;;;;;6.40;74.96;101721.84;15830840;28;20147;-48
2023/10/17 03:41:06;;;;;;;0.82;0.65;;;;;;;6.52;74.58;101712.56;15858255;28;20445;-47
2023/10/17 03:48:49;;;;;;;0.00;0.00;;;;;;;6.56;74.49;101713.06;15830252;28;20116;-48
2023/10/17 03:56:26;;;;;;;0.00;0.00;;;;;;;6.92;73.54;101712.88;15841520;28;20040;-46
2023/10/17 04:04:09;;;;;;;0.10;0.10;;;;;;;6.53;75.54;101713.41;15851720;28;20793;-48
2023/10/17 04:11:49;;;;;;;0.00;0.00;;;;;;;6.33;77.26;101715.47;15859966;28;20067;-49
2023/10/17 04:19:23;;;;;;;2.17;1.17;;;;;;;5.98;78.22;101721.75;15854129;28;20420;-48
2023/10/17 04:27:06;;;;;;;0.00;0.00;;;;;;;6.68;75.85;101717.16;15842064;28;20407;-51
2023/10/17 04:34:45;;;;;;;0.00;0.00;;;;;;;6.96;75.46;101719.56;15828617;28;20138;-48
2023/10/17 04:42:26;;;;;;;0.00;0.00;;;;;;;7.32;74.09;101728.16;15838630;28;20086;-48
2023/10/17 04:50:02;;;;;;;0.00;0.00;;;;;;;7.41;73.35;101729.81;15852019;28;20101;-46
2023/10/17 05:05:45;;;;;;;0.00;0.00;;;;;;;6.90;75.98;101732.56;15821985;28;20135;-51
2023/10/17 06:24:32;;;;;;;2.95;0.75;;;;;;;7.16;77.29;101782.34;15867185;28;20050;-54
2023/10/17 06:32:15;;;;;;;0.25;0.25;;;;;;;7.70;75.26;101782.81;15859911;28;20138;-54
2023/10/17 06:39:50;;;;;;;0.30;0.30;;;;;;;7.76;73.77;101792.00;15866421;28;20139;-50
2023/10/17 06:47:30;;;;;;;0.00;0.00;;;;;;;8.34;73.31;101791.78;15854499;28;20047;-48
2023/10/17 06:55:07;;;;;;;0.10;0.10;;;;;;;8.41;72.88;101802.69;15857234;28;20044;-51
2023/10/17 07:02:42;;;;;;;0.00;0.00;;;;;;;8.40;74.06;101814.41;15864938;28;20039;-49
2023/10/17 07:10:24;;;;;;;0.32;0.32;;;;;;;8.73;72.96;101803.63;15863995;28;20040;-47
2023/10/17 07:25:49;;;;;;;1.02;0.85;;;;;;;8.30;74.01;101808.34;15862951;28;20113;-50
2023/10/17 07:33:23;;;;;;;2.13;1.92;;;;;;;8.77;74.67;101815.66;15856856;28;20035;-49
2023/10/17 07:41:09;;;;;;;0.00;0.00;;;;;;;9.24;71.59;101817.50;15861612;28;20044;-48
2023/10/17 07:48:48;;;;;;;0.08;0.08;;;;;;;9.37;71.88;101809.69;15839752;28;20054;-50
2023/10/17 07:56:25;;;;;;;0.00;0.00;;;;;;;9.35;71.98;101796.50;15836023;28;20537;-49
2023/10/17 08:04:13;;;;;;;0.00;0.00;;;;;;;9.57;71.96;101802.91;15861728;28;20051;-51
2023/10/17 08:11:51;;;;;;;0.25;0.20;;;;;;;9.63;71.56;101801.34;15860509;28;20050;-50
2023/10/17 08:19:29;;;;;;;0.82;0.25;;;;;;;9.90;69.77;101810.72;15859838;28;20188;-52
2023/10/17 08:27:41;;;;;;;0.00;0.00;;;;;;;10.08;69.50;101816.59;15859707;28;20046;-53
2023/10/17 08:35:19;;;;;;;0.10;0.10;;;;;;;10.19;68.50;101807.28;15857179;28;20028;-54
2023/10/17 08:42:56;;;;;;;0.00;0.00;;;;;;;10.70;66.21;101812.84;15854799;28;20043;-52
2023/10/17 08:50:30;;;;;;;0.30;0.30;;;;;;;10.52;67.50;101810.50;15850619;28;20043;-52
2023/10/17 08:58:06;;;;;;;0.00;0.00;;;;;;;10.75;67.71;101804.22;15849722;28;20484;-51
2023/10/17 09:05:58;;;;;;;0.03;0.03;;;;;;;10.72;65.68;101800.91;15858842;28;20130;-53
2023/10/17 09:14:14;;;;;;;0.00;0.00;;;;;;;11.02;64.49;101811.63;15859416;28;20047;-54
2023/10/17 09:21:49;;;;;;;0.00;0.00;;;;;;;10.71;66.20;101817.19;15858204;28;20064;-49
2023/10/17 09:29:27;;;;;;;0.00;0.00;;;;;;;11.32;63.19;101803.50;15851639;27;20040;-50
2023/10/17 09:37:04;;;;;;;0.08;0.08;;;;;;;11.50;61.97;101794.00;15857561;28;20122;-48
2023/10/17 09:44:40;;;;;;;0.00;0.00;;;;;;;11.86;58.40;101801.22;15845258;28;20121;-49
2023/10/17 09:52:15;;;;;;;0.00;0.00;;;;;;;11.68;60.22;101803.50;15856859;28;20138;-50
2023/10/17 10:00:04;;;;;;;0.10;0.10;;;;;;;11.30;60.03;101805.56;15829899;28;20066;-51
2023/10/17 10:07:39;;;;;;;0.00;0.00;;;;;;;11.98;58.66;101794.31;15868521;28;20043;-50
2023/10/17 10:23:35;;;;;;;0.00;0.00;;;;;;;11.43;57.54;101786.91;15807128;27;20435;-51
2023/10/17 10:31:38;;;;;;;0.00;0.00;;;;;;;12.21;57.25;101775.22;15785124;22;20057;-52
2023/10/17 10:39:18;;;;;;;0.00;0.00;;;;;;;12.27;56.01;101768.25;15726418;28;20140;-48
2023/10/17 10:46:52;;;;;;;0.00;0.00;;;;;;;12.44;56.04;101760.69;15665160;28;20052;-47
2023/10/17 10:54:54;;;;;;;0.22;0.13;;;;;;;12.63;56.42;101751.06;15647472;28;20053;-47
2023/10/17 11:02:29;;;;;;;0.00;0.00;;;;;;;12.68;55.74;101749.44;15657110;28;20449;-47
2023/10/17 11:10:06;;;;;;;0.20;0.08;;;;;;;12.59;55.40;101739.88;15664129;28;20048;-47
2023/10/17 11:17:40;;;;;;;0.00;0.00;;;;;;;11.91;57.52;101746.84;15664384;28;20095;-48
2023/10/17 11:25:21;;;;;;;0.30;0.28;;;;;;;12.07;56.94;101743.03;15663430;28;20053;-49
2023/10/17 11:33:01;;;;;;;0.00;0.00;;;;;;;12.60;52.90;101713.75;15631959;28;20059;-50
2023/10/17 11:40:42;;;;;;;0.00;0.00;;;;;;;12.82;50.69;101720.69;15621943;28;20517;-49
2023/10/17 11:48:31;;;;;;;0.10;0.10;;;;;;;12.60;48.57;101703.81;15622298;28;20115;-49
2023/10/17 11:56:05;;;;;;;0.00;0.00;;;;;;;12.82;48.82;101711.75;15620486;28;20057;-50
2023/10/17 12:03:39;;;;;;;0.00;0.00;;;;;;;13.02;47.74;101699.22;15620021;28;20453;-49
2023/10/17 12:11:13;;;;;;;0.00;0.00;;;;;;;14.17;45.43;101684.53;15618859;28;20076;-50
2023/10/17 12:18:47;;;;;;;0.00;0.00;;;;;;;15.30;43.67;101684.94;15619520;28;20406;-50
2023/10/17 12:26:26;;;;;;;0.00;0.00;;;;;;;15.68;39.88;101667.81;15618830;28;20501;-50
2023/10/17 12:34:00;;;;;;;0.00;0.00;;;;;;;14.61;39.62;101674.91;15618424;28;20429;-47
2023/10/17 12:41:35;;;;;;;0.00;0.00;;;;;;;14.38;41.29;101663.75;15617112;28;20049;-49
2023/10/17 12:49:10;;;;;;;0.10;0.10;;;;;;;14.15;42.32;101664.22;15617789;28;20124;-48
2023/10/17 12:56:45;;;;;;;0.00;0.00;;;;;;;13.67;43.86;101670.72;15617381;28;20061;-49
2023/10/17 13:04:20;;;;;;;0.00;0.00;;;;;;;12.93;46.75;101662.69;15617809;28;20092;-50
2023/10/17 13:11:54;;;;;;;0.00;0.00;;;;;;;12.87;45.64;101642.78;15614177;28;20049;-50
2023/10/17 13:19:29;;;;;;;0.00;0.00;;;;;;;13.26;42.88;101638.53;15611717;28;20048;-51
2023/10/17 13:27:04;;;;;;;0.00;0.00;;;;;;;13.30;43.69;101625.47;15615094;28;20099;-49
2023/10/17 13:34:46;;;;;;;0.00;0.00;;;;;;;12.30;47.22;101629.72;15609078;28;20136;-47
2023/10/17 13:42:21;;;;;;;0.00;0.00;;;;;;;12.07;49.79;101624.63;15613166;28;20049;-48
2023/10/17 13:49:55;;;;;;;0.00;0.00;;;;;;;11.58;49.52;101636.28;15616000;28;20050;-48
2023/10/17 13:57:31;;;;;;;0.00;0.00;;;;;;;12.13;48.95;101631.91;15614128;28;20565;-49
2023/10/17 14:05:05;;;;;;;0.00;0.00;;;;;;;12.37;50.79;101627.91;15613695;28;20355;-48
2023/10/17 14:12:41;;;;;;;0.22;0.17;;;;;;;12.66;50.82;101616.81;15614510;28;20519;-49
2023/10/17 14:20:28;;;;;;;0.00;0.00;;;;;;;12.76;50.93;101614.56;15612977;28;20081;-51
2023/10/17 14:28:02;;;;;;;0.00;0.00;;;;;;;12.91;50.90;101610.84;15611526;28;20038;-50
2023/10/17 14:35:36;;;;;;;0.00;0.00;;;;;;;12.63;47.89;101602.91;15595221;28;20056;-50
2023/10/17 14:43:14;;;;;;;0.00;0.00;;;;;;;11.59;49.89;101608.34;15611424;28;20406;-49
2023/10/17 14:50:49;;;;;;;0.00;0.00;;;;;;;12.51;51.92;101605.38;15611832;28;20041;-51
2023/10/17 14:58:23;;;;;;;0.43;0.30;;;;;;;12.43;50.92;101598.28;15612471;28;20044;-49
2023/10/17 15:05:56;;;;;;;0.00;0.00;;;;;;;12.25;51.73;101596.13;15615885;28;20045;-48
2023/10/17 15:13:31;;;;;;;0.00;0.00;;;;;;;12.32;52.47;101598.88;15623926;28;20469;-49
2023/10/17 15:21:08;;;;;;;0.00;0.00;;;;;;;12.33;53.98;101602.41;15622138;28;20516;-52
2023/10/17 15:28:44;;;;;;;0.00;0.00;;;;;;;12.08;56.23;101581.38;15622129;28;20445;-49
2023/10/17 15:36:24;;;;;;;0.10;0.10;;;;;;;12.00;55.67;101603.06;15621342;28;20049;-51
2023/10/17 15:43:59;;;;;;;0.85;0.13;;;;;;;12.33;55.07;101597.84;15621186;28;20045;-49
2023/10/17 15:51:34;;;;;;;0.00;0.00;;;;;;;12.12;57.38;101597.94;15620799;28;20049;-50
2023/10/17 15:59:09;;;;;;;0.10;0.10;;;;;;;11.83;58.25;101599.03;15620756;28;20538;-49
2023/10/17 16:06:43;;;;;;;0.17;0.17;;;;;;;11.61;58.85;101604.44;15619547;28;20041;-49
2023/10/17 16:14:17;;;;;;;0.00;0.00;;;;;;;11.40;59.75;101599.94;15618070;28;20045;-49
2023/10/17 16:21:53;;;;;;;0.55;0.28;;;;;;;11.02;60.73;101593.19;15619488;28;20049;-47
2023/10/17 16:29:27;;;;;;;0.00;0.00;;;;;;;10.65;62.26;101585.16;15618696;28;20046;-49
2023/10/17 16:37:01;;;;;;;0.00;0.00;;;;;;;10.37;62.58;101593.09;15622976;22;20389;-52
2023/10/17 16:44:37;;;;;;;0.00;0.00;;;;;;;10.16;63.28;101590.31;15612442;28;20056;-53
2023/10/17 16:52:10;;;;;;;0.15;0.15;;;;;;;9.90;63.54;101596.16;15612803;28;20085;-52
2023/10/17 16:59:45;;;;;;;0.10;0.10;;;;;;;9.41;65.17;101604.69;15611568;28;20046;-53
2023/10/17 17:07:19;;;;;;;0.22;0.22;;;;;;;9.33;65.02;101610.16;15610261;28;20059;-49
2023/10/17 17:14:54;;;;;;;0.10;0.10;;;;;;;9.13;65.36;101609.78;15609420;28;20044;-51
2023/10/17 17:22:27;;;;;;;0.15;0.15;;;;;;;8.90;65.28;101613.28;15617990;28;20119;-50
2023/10/17 17:30:05;;;;;;;0.65;0.30;;;;;;;8.73;65.88;101616.28;15610113;28;20107;-53
2023/10/17 17:37:40;;;;;;;0.38;0.32;;;;;;;8.52;66.35;101616.88;15611064;28;20705;-52
2023/10/17 17:45:14;;;;;;;;;;;;;;;8.16;66.11;101607.47;15609872;28;20049;-52
2023/10/17 17:52:48;;;;;;;0.10;0.10;;;;;;;8.19;66.96;101598.25;15608485;28;19921;-51
2023/10/17 18:00:22;;;;;;;0.30;0.30;;;;;;;8.02;66.71;101607.34;15608565;28;20041;-53
2023/10/17 18:07:56;;;;;;;0.38;0.38;;;;;;;7.85;67.10;101611.91;15608923;28;20045;-53
2023/10/17 18:15:33;;;;;;;5.57;2.03;;;;;;;7.32;67.20;101605.28;15608572;28;20045;-53
2023/10/17 18:23:08;;;;;;;1.48;1.38;;;;;;;7.29;68.15;101609.16;15607947;28;20383;-53
2023/10/17 18:30:44;;;;;;;0.70;0.70;;;;;;;7.21;67.99;101614.47;15606437;28;20038;-50
2023/10/17 18:38:17;;;;;;;0.30;0.30;;;;;;;7.04;68.85;101605.66;15608394;28;20514;-54
2023/10/17 18:45:52;;;;;;;4.32;1.08;;;;;;;7.06;67.98;101600.97;15621602;28;20115;-55
2023/10/17 18:53:25;;;;;;;0.43;0.43;;;;;;;7.14;68.44;101602.81;15622766;28;20042;-56
2023/10/17 19:01:01;;;;;;;2.13;1.48;;;;;;;5.42;73.47;101597.81;15620231;28;20064;-50
2023/10/17 19:08:34;;;;;;;0.03;0.03;;;;;;;6.64;69.54;101590.41;15616184;28;20085;-56
2023/10/17 19:16:10;;;;;;;0.63;0.63;;;;;;;6.49;69.63;101584.03;15616748;28;20119;-55
2023/10/17 19:23:48;;;;;;;0.82;0.80;;;;;;;6.24;69.88;101588.44;15616561;28;20045;-52
2023/10/17 19:31:23;;;;;;;3.03;2.75;;;;;;;6.19;69.30;101580.94;15615716;28;20049;-51
2023/10/17 19:38:57;;;;;;;6.35;2.97;;;;;;;6.24;69.10;101580.44;15615783;28;20410;-56
2023/10/17 19:46:32;;;;;;;2.58;2.38;;;;;;;5.75;69.63;101589.03;15630298;28;20343;-52
2023/10/17 19:54:05;;;;;;;0.43;0.43;;;;;;;5.99;68.98;101575.03;15613964;28;20461;-51
2023/10/17 20:01:40;;;;;;;1.40;0.55;;;;;;;5.97;68.94;101574.34;15615623;28;20092;-53
2023/10/17 20:09:15;;;;;;;0.08;0.08;;;;;;;5.72;69.15;101580.50;15614141;28;20041;-53
2023/10/17 20:16:50;;;;;;;0.55;0.55;;;;;;;5.28;70.30;101581.41;15615514;28;20489;-54
2023/10/17 20:24:23;;;;;;;1.15;1.02;;;;;;;5.32;70.65;101560.63;15613248;28;20136;-53
2023/10/17 20:31:58;;;;;;;0.40;0.40;;;;;;;5.54;69.74;101548.59;15613447;28;20355;-54
2023/10/17 20:39:33;;;;;;;1.08;1.05;;;;;;;5.22;69.50;101542.09;15613902;28;20048;-51
2023/10/17 20:47:07;;;;;;;0.55;0.50;;;;;;;5.38;69.83;101541.38;15610365;28;20037;-51
2023/10/17 20:54:41;;;;;;;0.52;0.52;;;;;;;5.23;69.67;101535.78;15611017;28;20107;-54
2023/10/17 21:02:15;;;;;;;0.25;0.25;;;;;;;5.00;68.67;101502.69;15610770;28;20037;-55
2023/10/17 21:09:49;;;;;;;0.30;0.30;;;;;;;4.99;68.66;101523.13;15611772;28;20041;-52
2023/10/17 21:17:23;;;;;;;;;;;;;;;4.96;70.04;101515.44;15611216;28;20137;-48
2023/10/17 21:24:57;;;;;;;0.55;0.55;;;;;;;4.71;70.53;101513.56;15610701;28;19924;-55
2023/10/17 21:32:33;;;;;;;1.88;1.70;;;;;;;4.84;69.57;101495.38;15610255;28;20406;-51
2023/10/17 21:40:07;;;;;;;0.00;0.00;;;;;;;4.56;69.66;101474.22;15609670;28;20463;-53
2023/10/17 21:47:45;;;;;;;0.47;0.45;;;;;;;4.68;69.45;101488.13;15609696;28;20073;-50
2023/10/17 21:55:18;;;;;;;0.00;0.00;;;;;;;4.48;68.61;101486.63;15607442;28;21151;-53
2023/10/17 22:02:55;;;;;;;0.77;0.77;;;;;;;4.42;69.56;101503.16;15607941;28;20069;-52
2023/10/17 22:10:36;;;;;;;0.32;0.32;;;;;;;4.44;69.37;101501.22;15606439;28;20096;-51
2023/10/17 22:18:30;;;;;;;0.28;0.28;;;;;;;4.30;69.21;101495.41;15608295;28;20053;-51
2023/10/17 22:26:06;;;;;;;0.55;0.47;;;;;;;3.97;69.13;101488.94;15609319;28;20137;-52
2023/10/17 22:33:41;;;;;;;1.60;1.42;;;;;;;3.70;69.87;101494.25;15621248;22;20042;-48
2023/10/17 22:41:14;;;;;;;2.50;0.70;;;;;;;4.02;69.33;101491.97;15612273;28;20042;-51
2023/10/17 22:48:50;;;;;;;0.95;0.95;;;;;;;3.86;69.56;101489.09;15613216;28;20514;-53
2023/10/17 22:56:23;;;;;;;0.40;0.40;;;;;;;4.04;69.41;101478.53;15611935;28;20164;-51
2023/10/17 23:40:04;;;;;;;0.38;0.38;;;;;;;3.57;69.60;101470.66;15625792;28;20398;-49
2023/10/17 23:47:38;;;;;;;0.15;0.15;;;;;;;3.52;70.02;101464.97;15622070;28;20552;-50
2023/10/17 23:55:14;;;;;;;5.57;2.72;;;;;;;3.16;69.52;101446.25;15622672;28;20044;-50
